map of FRN home
FRN - Airport
Location
City:  Fort Richardson, Alaska, United States
Near (Alt.):Anchorage
Name:Bryant AAF Airport
ICAO:PAFR
IATA:FRN
FAA LID:FRN

Details
Type:Airport (Airfield)
Use:Military
Latitude:6115'57"N (61.265899)
Longitude:14939'12"W (-149.653307)
Datum:WGS 1984
Elevation:386 ft (118 m)
Variation:16.23E (WMM2015 magnetic declination)
-0.34 annual change
Runways:1
Longest:4088 × 100 ft (1246 × 30.5 m), paved

Time
Time Zone:UTC-9 (DST-8)
Local Time:

Weather
METAR:PAFR 261458Z AUTO 00000KT 9SM OVC060 05/M03 A3005 RMK AO2 SLP184 T00501032 55001 $

Related Locations
Nearby:
Farthest:FACF: 10543 mi / 16968 km
St. Francis [St. Francis Field], EC, ZA

Find:

   beyond  
but within

Other Information
Maps:
NOTAMs:
Links:
Sources:

  
flag of United States
flag of Alaska
  

Sectional Chart

Flight Planning
at skyvector.com

Satellite Image

Google Maps Satellite view

 

Copyright © 2004-2018 Karl L. Swartz. All rights reserved.
The Great Circle Mapper name and logo are trademarks of the Great Circle Mapper.
All other trademarks mentioned herein belong to their respective owners.
Please see credits for attibutions and further copyright information.

  Follow gcmap on Facebook Follow gcmap on Twitter Follow gcmap on Google+ GCmap on LinkedIn

hCard Microformat

Geo Microformat